createdAt,value
2022-08-26T19:31:02.102Z,3.65
2022-08-26T19:33:29.297Z,3.20
2022-08-26T19:35:56.254Z,3.30
2022-08-26T19:38:22.823Z,3.05
2022-08-26T19:40:49.337Z,3.15
2022-08-26T19:43:15.869Z,3.42
2022-08-26T19:45:43.546Z,3.50
2022-08-26T19:48:10.263Z,3.33
2022-08-26T19:50:36.826Z,3.10
2022-08-26T19:53:03.548Z,2.90
2022-08-26T19:55:30.783Z,3.72
2022-08-26T19:57:57.360Z,3.67
2022-08-26T20:00:26.569Z,3.97
2022-08-26T20:02:53.688Z,3.83
2022-08-26T20:05:22.907Z,4.07
2022-08-26T20:07:50.010Z,4.05
2022-08-26T20:10:18.874Z,4.80
2022-08-26T20:12:45.381Z,4.00
2022-08-26T20:15:13.028Z,4.25
2022-08-26T20:17:40.452Z,3.70
2022-08-26T20:20:13.296Z,3.70
2022-08-26T20:22:56.671Z,4.32
2022-08-26T20:25:23.549Z,4.20
2022-08-26T20:27:50.069Z,4.22
2022-08-26T20:30:16.579Z,3.78
2022-08-26T20:32:43.382Z,4.50
2022-08-26T20:35:12.558Z,4.93
2022-08-26T20:37:39.923Z,4.97
2022-08-26T20:40:07.981Z,5.88
2022-08-26T20:42:34.906Z,6.43
2022-08-26T20:45:02.041Z,7.22
2022-08-26T20:47:28.619Z,7.35
2022-08-26T20:49:55.788Z,6.90
2022-08-26T20:52:22.518Z,7.60
2022-08-26T20:54:49.019Z,6.88
2022-08-26T20:57:15.645Z,7.40
2022-08-26T20:59:42.150Z,7.20
2022-08-26T21:02:08.788Z,6.95
2022-08-26T21:04:35.451Z,6.82
2022-08-26T21:07:02.038Z,7.07
2022-08-26T21:09:28.575Z,6.60
2022-08-26T21:11:56.786Z,6.68
2022-08-26T21:14:25.867Z,6.40
2022-08-26T21:16:58.783Z,6.07
2022-08-26T21:19:25.851Z,6.18
2022-08-26T21:21:56.084Z,5.32
2022-08-26T21:24:32.455Z,5.45
2022-08-26T21:27:02.292Z,6.38
2022-08-26T21:29:29.198Z,6.57
2022-08-26T21:31:59.601Z,6.00
2022-08-26T21:34:26.700Z,5.85
2022-08-26T21:36:54.951Z,5.85
2022-08-26T21:39:21.774Z,6.00
2022-08-26T21:41:48.395Z,5.88
2022-08-26T21:44:16.895Z,5.93
2022-08-26T21:46:45.011Z,5.72
2022-08-26T21:49:14.009Z,5.57
2022-08-26T21:51:45.358Z,5.50
2022-08-26T21:54:13.255Z,5.68
2022-08-26T21:56:45.234Z,5.82
2022-08-26T21:59:12.841Z,4.80
2022-08-26T22:01:39.429Z,4.65
2022-08-26T22:04:08.020Z,4.90
2022-08-26T22:06:41.671Z,4.63
2022-08-26T22:09:08.234Z,4.95
2022-08-26T22:11:34.792Z,4.72
2022-08-26T22:14:01.348Z,4.05
2022-08-26T22:16:28.041Z,3.47
2022-08-26T22:18:54.670Z,3.63
2022-08-26T22:21:25.044Z,3.10
2022-08-26T22:23:51.852Z,3.28
2022-08-26T22:28:58.601Z,3.40
2022-08-26T22:31:37.245Z,3.42
2022-08-26T22:34:10.559Z,3.05
2022-08-26T22:36:43.192Z,2.70
2022-08-26T22:39:12.712Z,2.85
2022-08-26T22:41:39.306Z,2.35
2022-08-26T22:44:06.083Z,2.65
2022-08-26T22:46:32.618Z,3.42
2022-08-26T22:48:59.176Z,2.63
2022-08-26T22:51:25.752Z,3.20
2022-08-26T22:53:52.296Z,2.75
2022-08-26T22:56:18.861Z,2.20
2022-08-26T22:58:45.425Z,2.40
2022-08-26T23:01:12.002Z,2.50
2022-08-26T23:03:38.658Z,2.40
2022-08-26T23:06:07.208Z,3.25
2022-08-26T23:08:33.721Z,2.22
2022-08-26T23:11:00.250Z,2.80
2022-08-26T23:13:26.990Z,2.33
2022-08-26T23:16:04.924Z,2.75
2022-08-26T23:18:32.118Z,2.50
2022-08-26T23:20:58.614Z,2.67
2022-08-26T23:23:25.607Z,2.55
2022-08-26T23:25:52.085Z,2.95
2022-08-26T23:28:18.713Z,2.55
2022-08-26T23:30:47.060Z,3.63
2022-08-26T23:33:14.073Z,2.72
2022-08-26T23:35:40.627Z,2.70
2022-08-26T23:38:08.077Z,3.25
2022-08-26T23:40:38.006Z,2.75
2022-08-26T23:43:07.804Z,3.13
2022-08-26T23:45:35.464Z,2.90
2022-08-26T23:48:02.374Z,2.80
2022-08-26T23:50:30.539Z,3.10
2022-08-26T23:52:57.025Z,2.90
2022-08-26T23:55:23.559Z,3.22
2022-08-26T23:57:50.276Z,2.88
